GMFF/FEZ METAR and TAF weather

Enter ICAO airport designator
Station Type Date Time Source
GMFF METAR 2020/01/18 04:30 UTC NOAA

GMFF 180430Z 20006KT CAVOK 04/M03 Q1031 NOSIG


Station Type Date Time Source
GMFF Decoded METAR 2020/01/18 04:30 UTC NOAA

Fes-Sais, Morocco (GMFF) 33-56N 004-59W 579M
Jan 17, 2020 - 11:30 PM EST / 2020.01.18 0430 UTC
Wind: from the SSW (200 degrees) at 7 MPH (6 KT):0
Visibility: greater than 7 mile(s):0
Temperature: 39 F (4 C)
Dew Point: 26 F (-3 C)
Relative Humidity: 60%
Pressure (altimeter): 30.45 in. Hg (1031 hPa)
ob: GMFF 180430Z 20006KT CAVOK 04/M03 Q1031 NOSIG
cycle: 4

Station Type Date Time Source
GMFF TAF 2020/01/17 18:45 UTC NOAA

TAF TAF GMFF 171700Z 1718/1824 02006KT CAVOK
BECMG 1811/1815 32010KT BKN026

Example: see airport list